Disclaimer

Please do not use the information listed here in-flight or in-navigation, as they are not provided to us by the airports but are provided by volunteers, so they might be outdated.

Search


Regions


Airport information page

Radio informations:
Tower (TWR) - 122.1 MHz
Approach (APP) - 122.1 MHz
RDO - 5637 MHz

Airport informations:
Latitude: 39° 03' 24.00" N
Longitude: 026° 35' 54.00" E
Elevation: 60 feet - 18 meters
Operating hours: Remarks
Operating agency: Civil government, landing fees and diplomatic clearance may be required
Timezone: UTC+2(+3DT) - Last Sunday in March to last Sunday in October
Fuel: Jet A1, without icing nhibitor.

Runway information:
14/32 - 7894 x 148 feet< - >2406 x 45 meters

Recent METARs:
LGMT 170650Z 09010KT 050V120 9999 FEW025 SCT030 12/06 Q1023
LGMT 170720Z 11012KT 050V120 9999 FEW025 SCT030 12/06 Q1023
LGMT 170750Z 11013KT 040V150 9999 FEW020 SCT030 12/07 Q1023

Airport on the map: